createdAt,value
2019-05-18T00:00:09.082Z,35.07
2019-05-18T00:02:37.414Z,35.04
2019-05-18T00:05:08.874Z,35.07
2019-05-18T00:07:37.179Z,35.07
2019-05-18T00:10:06.398Z,35.08
2019-05-18T00:12:34.888Z,35.05
2019-05-18T00:15:04.331Z,35.04
2019-05-18T00:17:32.653Z,35.05
2019-05-18T00:20:00.953Z,35.03
2019-05-18T00:22:29.275Z,35.04
2019-05-18T00:24:57.641Z,35.05
2019-05-18T00:27:25.955Z,35.06
2019-05-18T00:29:54.450Z,35.10
2019-05-18T00:32:23.120Z,35.09
2019-05-18T00:34:51.470Z,35.07
2019-05-18T00:37:19.775Z,35.14
2019-05-18T00:39:48.242Z,35.10
2019-05-18T00:42:16.599Z,35.06
2019-05-18T00:44:44.983Z,35.07
2019-05-18T00:47:13.276Z,35.09
2019-05-18T00:49:41.696Z,35.10
2019-05-18T00:52:10.103Z,35.06
2019-05-18T00:54:38.484Z,35.09
2019-05-18T00:57:06.850Z,35.14
2019-05-18T00:59:35.334Z,35.13
2019-05-18T01:02:03.694Z,35.12
2019-05-18T01:04:32.020Z,35.10
2019-05-18T01:07:00.415Z,35.10
2019-05-18T01:09:28.909Z,35.13
2019-05-18T01:11:57.298Z,35.10
2019-05-18T01:14:25.605Z,35.11
2019-05-18T01:16:54.022Z,35.16
2019-05-18T01:19:22.440Z,35.11
2019-05-18T01:21:50.753Z,35.14
2019-05-18T01:24:19.435Z,35.21
2019-05-18T01:26:47.727Z,35.21
2019-05-18T01:29:16.028Z,35.24
2019-05-18T01:31:44.346Z,35.20
2019-05-18T01:34:12.640Z,35.18
2019-05-18T01:36:40.954Z,35.24
2019-05-18T01:39:09.340Z,35.17
2019-05-18T01:41:37.745Z,35.21
2019-05-18T01:44:06.179Z,35.23
2019-05-18T01:46:34.859Z,35.19
2019-05-18T01:49:03.315Z,35.21
2019-05-18T01:51:31.629Z,35.19
2019-05-18T01:53:59.991Z,35.22
2019-05-18T01:56:28.316Z,35.19
2019-05-18T01:58:56.605Z,35.21
2019-05-18T02:01:24.935Z,35.24
2019-05-18T02:03:53.226Z,35.19
2019-05-18T02:06:21.550Z,35.20
2019-05-18T02:08:49.833Z,35.26
2019-05-18T02:11:18.151Z,35.23
2019-05-18T02:13:46.513Z,35.22
2019-05-18T02:16:14.829Z,35.27
2019-05-18T02:18:43.130Z,35.23
2019-05-18T02:21:11.450Z,35.23
2019-05-18T02:23:40.191Z,35.23
2019-05-18T02:26:08.479Z,35.26
2019-05-18T02:28:36.789Z,35.27
2019-05-18T02:31:07.449Z,35.26
2019-05-18T02:33:35.118Z,35.25
2019-05-18T02:36:03.545Z,35.27
2019-05-18T02:38:31.863Z,35.28
2019-05-18T02:41:00.162Z,35.56
2019-05-18T02:43:28.472Z,35.51
2019-05-18T02:45:56.769Z,35.42
2019-05-18T02:48:25.155Z,35.44
2019-05-18T02:50:53.509Z,35.43
2019-05-18T02:53:21.824Z,35.42
2019-05-18T02:55:50.116Z,35.41
2019-05-18T02:58:18.434Z,35.41
2019-05-18T03:00:47.484Z,35.42
2019-05-18T03:03:15.945Z,35.39
2019-05-18T03:05:46.455Z,35.41
2019-05-18T03:08:14.775Z,35.37
2019-05-18T03:10:43.127Z,35.42
2019-05-18T03:13:11.431Z,35.41
2019-05-18T03:15:39.829Z,35.39
2019-05-18T03:18:08.228Z,35.37
2019-05-18T03:20:36.616Z,35.40
2019-05-18T03:23:05.009Z,35.41
2019-05-18T03:25:33.309Z,35.37
2019-05-18T03:28:01.597Z,35.42
2019-05-18T03:30:30.004Z,35.43
2019-05-18T03:32:58.290Z,35.47
2019-05-18T03:35:27.119Z,35.46
2019-05-18T03:37:55.392Z,35.44
2019-05-18T03:40:23.709Z,35.46
2019-05-18T03:42:52.072Z,35.45
2019-05-18T03:45:20.427Z,35.46
2019-05-18T03:47:48.925Z,35.46
2019-05-18T03:50:17.473Z,35.48
2019-05-18T03:52:45.765Z,35.50
2019-05-18T03:55:14.345Z,35.49
2019-05-18T03:57:42.794Z,35.50
2019-05-18T04:00:11.615Z,35.51
2019-05-18T04:02:40.000Z,35.53
2019-05-18T04:05:09.115Z,35.47
2019-05-18T04:07:37.388Z,35.59
2019-05-18T04:10:06.636Z,35.66
2019-05-18T04:12:35.013Z,35.61
2019-05-18T04:15:04.242Z,35.63
2019-05-18T04:17:32.523Z,35.58
2019-05-18T04:20:00.909Z,35.54
2019-05-18T04:22:30.816Z,35.60
2019-05-18T04:25:00.598Z,35.64
2019-05-18T04:27:28.876Z,35.63
2019-05-18T04:29:57.305Z,35.62
2019-05-18T04:32:25.612Z,35.64
2019-05-18T04:34:53.995Z,35.61
2019-05-18T04:37:22.301Z,35.67
2019-05-18T04:39:50.664Z,35.65
2019-05-18T04:42:18.970Z,35.63
2019-05-18T04:44:47.661Z,35.63
2019-05-18T04:47:16.311Z,35.61
2019-05-18T04:50:03.546Z,35.63
2019-05-18T04:52:15.005Z,35.65
2019-05-18T04:54:43.463Z,35.62
2019-05-18T04:57:11.792Z,35.63
2019-05-18T04:59:40.083Z,35.64
2019-05-18T05:02:08.430Z,35.64
2019-05-18T05:04:36.710Z,35.62
2019-05-18T05:07:05.028Z,35.62
2019-05-18T05:09:33.483Z,35.63
2019-05-18T05:12:01.896Z,35.63
2019-05-18T05:14:30.367Z,35.63
2019-05-18T05:16:58.693Z,35.67
2019-05-18T05:19:27.079Z,35.59
2019-05-18T05:21:55.386Z,35.62
2019-05-18T05:24:23.792Z,35.62
2019-05-18T05:26:52.142Z,35.64
2019-05-18T05:29:20.401Z,35.64
2019-05-18T05:31:48.708Z,35.68
2019-05-18T05:34:16.993Z,35.68
2019-05-18T05:36:45.303Z,35.64
2019-05-18T05:39:13.626Z,35.90
2019-05-18T05:41:41.915Z,36.18
2019-05-18T05:44:10.224Z,35.87
2019-05-18T05:46:38.520Z,35.82
2019-05-18T05:49:06.837Z,35.80
2019-05-18T05:51:35.145Z,35.79
2019-05-18T05:54:03.459Z,35.77
2019-05-18T05:56:31.765Z,35.78
2019-05-18T05:59:00.067Z,35.76
2019-05-18T06:01:28.391Z,35.75
2019-05-18T06:03:56.701Z,35.73
2019-05-18T06:06:24.999Z,35.72
2019-05-18T06:08:53.331Z,35.77
2019-05-18T06:11:21.671Z,35.76
2019-05-18T06:13:49.995Z,35.72
2019-05-18T06:16:18.362Z,35.72
2019-05-18T06:18:46.866Z,35.73
2019-05-18T06:21:15.232Z,35.69
2019-05-18T06:23:43.552Z,35.74
2019-05-18T06:26:11.853Z,35.76
2019-05-18T06:28:40.150Z,35.74
2019-05-18T06:31:08.571Z,35.83
2019-05-18T06:33:36.924Z,35.86
2019-05-18T06:36:05.311Z,35.83
2019-05-18T06:38:33.647Z,35.88
2019-05-18T06:41:01.965Z,35.84
2019-05-18T06:43:30.263Z,35.82
2019-05-18T06:45:59.384Z,35.84
2019-05-18T06:48:27.852Z,35.91
2019-05-18T06:51:06.892Z,36.04
2019-05-18T06:53:26.263Z,35.92
2019-05-18T06:55:54.722Z,35.73
2019-05-18T06:58:23.746Z,35.51
2019-05-18T07:00:52.072Z,35.45
2019-05-18T07:03:20.563Z,35.37
2019-05-18T07:05:49.149Z,35.67
2019-05-18T07:08:17.493Z,35.72
2019-05-18T07:10:45.808Z,35.74
2019-05-18T07:13:14.475Z,35.70
2019-05-18T07:15:42.957Z,35.65
2019-05-18T07:18:11.319Z,35.45
2019-05-18T07:20:39.701Z,35.62
2019-05-18T07:23:08.026Z,35.65
2019-05-18T07:25:36.331Z,35.66
2019-05-18T07:28:04.808Z,35.58
2019-05-18T07:30:33.122Z,35.92
2019-05-18T07:33:01.431Z,35.82
2019-05-18T07:35:29.747Z,35.91
2019-05-18T07:37:58.176Z,35.85
2019-05-18T07:40:26.771Z,35.87
2019-05-18T07:42:55.245Z,36.01
2019-05-18T07:45:23.605Z,35.99
2019-05-18T07:47:51.924Z,36.22
2019-05-18T07:50:20.505Z,36.33
2019-05-18T07:52:48.889Z,36.01
2019-05-18T07:55:17.172Z,36.23
2019-05-18T07:57:45.517Z,36.13
2019-05-18T08:00:14.100Z,36.36
2019-05-18T08:02:42.480Z,36.13
2019-05-18T08:05:10.837Z,36.12
2019-05-18T08:07:39.321Z,36.08
2019-05-18T08:10:09.463Z,36.52
2019-05-18T08:12:37.864Z,36.26
2019-05-18T08:15:08.156Z,36.33
2019-05-18T08:17:36.482Z,36.00
2019-05-18T08:20:07.207Z,36.15
2019-05-18T08:22:35.553Z,36.03
2019-05-18T08:25:05.850Z,35.41
2019-05-18T08:27:34.163Z,35.70
2019-05-18T08:30:02.494Z,35.69
2019-05-18T08:32:30.786Z,35.93
2019-05-18T08:34:59.113Z,36.13
2019-05-18T08:37:27.549Z,36.33
2019-05-18T08:39:55.873Z,35.68
2019-05-18T08:42:24.241Z,35.94
2019-05-18T08:44:52.558Z,35.98
2019-05-18T08:47:20.888Z,36.33
2019-05-18T08:49:49.188Z,36.46
2019-05-18T08:52:17.498Z,36.44
2019-05-18T08:54:45.823Z,36.51
2019-05-18T08:57:14.138Z,36.48
2019-05-18T08:59:42.490Z,36.54
2019-05-18T09:02:10.857Z,36.52
2019-05-18T09:04:40.406Z,36.53
2019-05-18T09:07:08.718Z,36.42
2019-05-18T09:09:37.221Z,36.37
2019-05-18T09:12:05.869Z,37.17
2019-05-18T09:14:34.314Z,37.01
2019-05-18T09:17:02.566Z,36.95
2019-05-18T09:19:30.945Z,36.72
2019-05-18T09:21:59.217Z,36.69
2019-05-18T09:24:27.575Z,36.69
2019-05-18T09:26:55.854Z,36.63
2019-05-18T09:29:24.221Z,36.63
2019-05-18T09:31:52.660Z,36.53
2019-05-18T09:34:21.026Z,36.51
2019-05-18T09:36:49.458Z,36.56
2019-05-18T09:39:19.282Z,36.55
2019-05-18T09:41:47.611Z,36.56
2019-05-18T09:44:16.268Z,36.50
2019-05-18T09:46:44.754Z,36.44
2019-05-18T09:49:13.054Z,36.42
2019-05-18T09:51:41.366Z,36.35
2019-05-18T09:54:09.706Z,36.41
2019-05-18T09:56:38.106Z,36.37
2019-05-18T09:59:06.629Z,36.43
2019-05-18T10:01:35.051Z,36.38
2019-05-18T10:04:03.347Z,36.34
2019-05-18T10:06:31.839Z,36.34
2019-05-18T10:09:00.131Z,36.39
2019-05-18T10:11:28.494Z,36.36
2019-05-18T10:13:56.788Z,36.29
2019-05-18T10:16:25.108Z,36.37
2019-05-18T10:18:53.405Z,36.26
2019-05-18T10:21:21.733Z,36.28
2019-05-18T10:23:50.025Z,36.21
2019-05-18T10:26:18.337Z,36.22
2019-05-18T10:28:46.719Z,36.24
2019-05-18T10:31:15.282Z,36.30
2019-05-18T10:33:43.595Z,36.30
2019-05-18T10:36:11.984Z,36.25
2019-05-18T10:38:40.229Z,36.23
2019-05-18T10:41:08.535Z,36.18
2019-05-18T10:43:36.873Z,36.22
2019-05-18T10:46:05.236Z,36.17
2019-05-18T10:48:33.555Z,36.20
2019-05-18T10:51:05.301Z,36.24
2019-05-18T10:53:31.877Z,36.19
2019-05-18T10:56:00.177Z,36.21
2019-05-18T10:58:28.531Z,36.13
2019-05-18T11:00:56.842Z,36.14
2019-05-18T11:03:25.288Z,36.21
2019-05-18T11:05:53.579Z,36.22
2019-05-18T11:08:22.112Z,36.15
2019-05-18T11:10:50.573Z,36.11
2019-05-18T11:13:19.238Z,36.12
2019-05-18T11:15:47.596Z,36.09
2019-05-18T11:18:15.935Z,36.13
2019-05-18T11:20:44.241Z,36.08
2019-05-18T11:23:12.551Z,36.08
2019-05-18T11:25:41.615Z,35.95
2019-05-18T11:28:09.983Z,36.21
2019-05-18T11:30:38.292Z,36.22
2019-05-18T11:33:06.673Z,36.15
2019-05-18T11:35:35.127Z,36.28
2019-05-18T11:38:03.508Z,36.30
2019-05-18T11:40:31.899Z,36.32
2019-05-18T11:43:00.320Z,36.33
2019-05-18T11:45:28.972Z,36.25
2019-05-18T11:47:57.277Z,36.39
2019-05-18T11:50:25.731Z,36.43
2019-05-18T11:52:54.191Z,36.32
2019-05-18T11:55:24.814Z,36.25
2019-05-18T11:57:53.182Z,36.33
2019-05-18T12:00:22.176Z,36.34
2019-05-18T12:02:50.544Z,36.47
2019-05-18T12:05:18.867Z,36.27
2019-05-18T12:07:47.206Z,36.50
2019-05-18T12:10:18.613Z,36.31
2019-05-18T12:12:47.136Z,36.53
2019-05-18T12:15:15.875Z,36.78
2019-05-18T12:17:44.247Z,36.74
2019-05-18T12:20:13.032Z,36.54
2019-05-18T12:22:41.317Z,36.80
2019-05-18T12:25:10.483Z,36.96
2019-05-18T12:27:38.927Z,36.80
2019-05-18T12:30:08.628Z,37.09
2019-05-18T12:32:37.126Z,37.10
2019-05-18T12:35:07.639Z,37.24
2019-05-18T12:37:35.963Z,36.89
2019-05-18T12:40:06.122Z,36.99
2019-05-18T12:42:34.503Z,37.20
2019-05-18T12:45:02.988Z,36.77
2019-05-18T12:47:31.485Z,37.07
2019-05-18T12:49:59.784Z,37.02
2019-05-18T12:52:28.157Z,37.00
2019-05-18T12:54:56.499Z,37.16
2019-05-18T12:57:24.823Z,37.07
2019-05-18T12:59:53.184Z,37.03
2019-05-18T13:02:21.512Z,36.90
2019-05-18T13:04:49.814Z,37.08
2019-05-18T13:07:18.162Z,37.10
2019-05-18T13:09:46.541Z,36.89
2019-05-18T13:12:15.067Z,36.84
2019-05-18T13:14:43.374Z,36.89
2019-05-18T13:17:11.714Z,36.88
2019-05-18T13:19:40.054Z,36.96
2019-05-18T13:22:08.487Z,36.59
2019-05-18T13:24:44.914Z,36.26
2019-05-18T13:27:06.778Z,36.14
2019-05-18T13:29:35.154Z,36.04
2019-05-18T13:32:03.701Z,36.32
2019-05-18T13:34:32.055Z,36.20
2019-05-18T13:37:00.423Z,36.29
2019-05-18T13:39:28.830Z,36.23
2019-05-18T13:41:57.214Z,35.86
2019-05-18T13:44:25.532Z,35.62
2019-05-18T13:46:54.013Z,35.66
2019-05-18T13:49:22.321Z,36.00
2019-05-18T13:51:50.777Z,35.69
2019-05-18T13:54:19.107Z,35.58
2019-05-18T13:56:47.484Z,35.38
2019-05-18T13:59:15.812Z,35.40
2019-05-18T14:01:44.110Z,35.43
2019-05-18T14:04:12.495Z,35.74
2019-05-18T14:06:40.892Z,35.93
2019-05-18T14:09:09.225Z,36.32
2019-05-18T14:11:37.529Z,36.54
2019-05-18T14:14:06.049Z,36.83
2019-05-18T14:16:34.389Z,36.69
2019-05-18T14:19:03.171Z,36.76
2019-05-18T14:21:31.455Z,36.69
2019-05-18T14:23:59.873Z,36.76
2019-05-18T14:26:28.310Z,36.78
2019-05-18T14:28:56.754Z,36.61
2019-05-18T14:31:25.048Z,36.56
2019-05-18T14:33:53.420Z,36.50
2019-05-18T14:36:21.835Z,36.44
2019-05-18T14:38:50.167Z,36.55
2019-05-18T14:41:18.714Z,36.53
2019-05-18T14:43:46.997Z,36.47
2019-05-18T14:46:15.331Z,36.41
2019-05-18T14:48:43.745Z,36.45
2019-05-18T14:51:12.025Z,36.61
2019-05-18T14:53:40.507Z,36.54
2019-05-18T14:56:08.958Z,36.55
2019-05-18T14:58:37.366Z,36.58
2019-05-18T15:01:07.007Z,36.56
2019-05-18T15:03:35.300Z,36.53
2019-05-18T15:06:03.711Z,36.50
2019-05-18T15:08:32.000Z,36.45
2019-05-18T15:11:00.401Z,36.50
2019-05-18T15:13:28.705Z,36.47
2019-05-18T15:15:57.294Z,36.58
2019-05-18T15:18:25.599Z,36.72
2019-05-18T15:20:53.989Z,36.61
2019-05-18T15:23:22.368Z,36.65
2019-05-18T15:25:51.475Z,36.70
2019-05-18T15:28:20.118Z,36.73
2019-05-18T15:30:48.453Z,36.71
2019-05-18T15:33:16.794Z,36.64
2019-05-18T15:35:45.215Z,36.68
2019-05-18T15:38:13.705Z,36.75
2019-05-18T15:40:42.007Z,36.72
2019-05-18T15:43:10.305Z,36.81
2019-05-18T15:45:38.626Z,36.80
2019-05-18T15:48:07.010Z,36.96
2019-05-18T15:50:35.350Z,37.45
2019-05-18T15:53:03.686Z,37.36
2019-05-18T15:55:32.037Z,37.85
2019-05-18T15:58:00.331Z,37.64
2019-05-18T16:00:28.710Z,37.75
2019-05-18T16:02:57.196Z,37.68
2019-05-18T16:05:25.508Z,38.06
2019-05-18T16:07:53.901Z,37.82
2019-05-18T16:10:22.444Z,37.59
2019-05-18T16:12:50.807Z,37.68
2019-05-18T16:15:19.179Z,37.56
2019-05-18T16:17:47.564Z,37.41
2019-05-18T16:20:16.289Z,37.47
2019-05-18T16:22:44.834Z,37.43
2019-05-18T16:25:13.434Z,37.54
2019-05-18T16:27:41.831Z,37.66
2019-05-18T16:30:10.768Z,37.67
2019-05-18T16:32:39.152Z,37.79
2019-05-18T16:35:10.861Z,37.56
2019-05-18T16:37:39.252Z,37.69
2019-05-18T16:40:08.422Z,37.92
2019-05-18T16:42:36.844Z,38.07
2019-05-18T16:45:08.733Z,38.10
2019-05-18T16:47:37.060Z,37.92
2019-05-18T16:50:08.946Z,38.03
2019-05-18T16:52:37.270Z,37.76
2019-05-18T16:55:09.389Z,37.74
2019-05-18T16:57:37.696Z,37.77
2019-05-18T17:00:15.957Z,37.85
2019-05-18T17:02:42.730Z,37.89
2019-05-18T17:05:11.985Z,37.88
2019-05-18T17:07:40.403Z,37.97
2019-05-18T17:10:09.173Z,37.95
2019-05-18T17:12:37.557Z,37.86
2019-05-18T17:15:10.004Z,37.75
2019-05-18T17:17:38.441Z,37.81
2019-05-18T17:20:08.153Z,37.88
2019-05-18T17:22:36.443Z,37.80
2019-05-18T17:25:05.497Z,37.79
2019-05-18T17:27:33.889Z,37.96
2019-05-18T17:30:02.569Z,37.84
2019-05-18T17:32:30.881Z,37.88
2019-05-18T17:34:59.300Z,37.93
2019-05-18T17:37:27.634Z,37.89
2019-05-18T17:39:55.953Z,37.89
2019-05-18T17:42:24.325Z,37.87
2019-05-18T17:44:52.640Z,37.77
2019-05-18T17:47:21.182Z,37.84
2019-05-18T17:49:49.520Z,37.85
2019-05-18T17:52:17.825Z,37.82
2019-05-18T17:54:46.319Z,37.83
2019-05-18T17:57:14.623Z,37.77
2019-05-18T17:59:42.935Z,37.80
2019-05-18T18:02:12.886Z,37.76
2019-05-18T18:04:41.225Z,37.77
2019-05-18T18:07:11.912Z,37.77
2019-05-18T18:09:40.190Z,37.71
2019-05-18T18:12:08.471Z,37.76
2019-05-18T18:14:36.796Z,37.75
2019-05-18T18:17:05.337Z,37.73
2019-05-18T18:19:33.657Z,37.69
2019-05-18T18:22:02.083Z,37.64
2019-05-18T18:24:30.384Z,37.68
2019-05-18T18:26:58.698Z,37.68
2019-05-18T18:29:27.083Z,37.73
2019-05-18T18:31:55.558Z,37.64
2019-05-18T18:34:23.836Z,37.68
2019-05-18T18:36:52.173Z,37.69
2019-05-18T18:39:20.503Z,37.70
2019-05-18T18:41:48.920Z,37.69
2019-05-18T18:44:17.283Z,37.67
2019-05-18T18:46:45.646Z,37.70
2019-05-18T18:49:14.016Z,37.73
2019-05-18T18:51:42.330Z,37.71
2019-05-18T18:54:12.625Z,37.69
2019-05-18T18:56:40.810Z,37.72
2019-05-18T18:59:09.145Z,37.72
2019-05-18T19:01:37.594Z,37.68
2019-05-18T19:04:05.870Z,37.69
2019-05-18T19:06:34.357Z,37.72
2019-05-18T19:09:03.001Z,37.63
2019-05-18T19:11:31.376Z,37.61
2019-05-18T19:13:59.838Z,37.62
2019-05-18T19:16:28.310Z,37.63
2019-05-18T19:18:56.641Z,37.61
2019-05-18T19:21:24.935Z,37.60
2019-05-18T19:23:53.284Z,37.56
2019-05-18T19:26:21.598Z,37.59
2019-05-18T19:28:49.986Z,37.61
2019-05-18T19:31:18.289Z,37.56
2019-05-18T19:33:46.770Z,37.60
2019-05-18T19:36:15.097Z,37.58
2019-05-18T19:38:43.436Z,37.59
2019-05-18T19:41:11.728Z,37.60
2019-05-18T19:43:40.081Z,37.58
2019-05-18T19:46:08.449Z,37.60
2019-05-18T19:48:36.896Z,37.60
2019-05-18T19:51:05.203Z,37.60
2019-05-18T19:53:33.523Z,37.56
2019-05-18T19:56:01.900Z,37.53
2019-05-18T19:58:30.241Z,37.46
2019-05-18T20:00:58.790Z,37.50
2019-05-18T20:03:27.103Z,37.51
2019-05-18T20:05:55.396Z,37.53
2019-05-18T20:08:23.735Z,37.50
2019-05-18T20:10:52.045Z,37.45
2019-05-18T20:13:20.379Z,37.48
2019-05-18T20:15:48.678Z,37.48
2019-05-18T20:18:16.999Z,37.44
2019-05-18T20:20:45.308Z,37.40
2019-05-18T20:23:13.781Z,37.45
2019-05-18T20:25:42.101Z,37.49
2019-05-18T20:28:22.968Z,37.51
2019-05-18T20:30:40.482Z,37.50
2019-05-18T20:33:08.814Z,37.46
2019-05-18T20:35:37.205Z,37.47
2019-05-18T20:38:05.592Z,37.42
2019-05-18T20:40:33.983Z,37.47
2019-05-18T20:43:02.554Z,37.51
2019-05-18T20:45:31.411Z,37.43
2019-05-18T20:47:59.800Z,37.46
2019-05-18T20:50:28.114Z,37.44
2019-05-18T20:52:56.502Z,37.40
2019-05-18T20:55:24.830Z,37.45
2019-05-18T20:57:53.129Z,37.49
2019-05-18T21:00:21.530Z,37.45
2019-05-18T21:02:49.861Z,37.45
2019-05-18T21:05:18.299Z,37.45
2019-05-18T21:07:48.984Z,37.39
2019-05-18T21:10:17.587Z,37.42
2019-05-18T21:12:45.895Z,37.38
2019-05-18T21:15:14.586Z,37.35
2019-05-18T21:17:42.892Z,37.45
2019-05-18T21:20:11.264Z,37.41
